createdAt,value
2024-04-22T00:00:34.634Z,-1.49
2024-04-22T00:01:34.807Z,-1.51
2024-04-22T00:02:34.587Z,-1.51
2024-04-22T00:03:34.749Z,-1.52
2024-04-22T00:04:34.580Z,-1.52
2024-04-22T00:05:34.562Z,-1.54
2024-04-22T00:06:34.505Z,-1.54
2024-04-22T00:07:34.635Z,-1.54
2024-04-22T00:08:35.236Z,-1.54
2024-04-22T00:09:34.585Z,-1.56
2024-04-22T00:10:34.640Z,-1.55
2024-04-22T00:11:34.586Z,-1.56
2024-04-22T00:12:34.475Z,-1.59
2024-04-22T00:13:34.735Z,-1.59
2024-04-22T00:14:34.573Z,-1.56
2024-04-22T00:15:34.460Z,-1.56
2024-04-22T00:16:34.485Z,-1.58
2024-04-22T00:17:34.702Z,-1.61
2024-04-22T00:18:34.414Z,-1.59
2024-04-22T00:19:34.566Z,-1.58
2024-04-22T00:20:34.556Z,-1.61
2024-04-22T00:21:34.453Z,-1.58
2024-04-22T00:22:35.399Z,-1.61
2024-04-22T00:23:34.405Z,-1.64
2024-04-22T00:24:34.316Z,-1.64
2024-04-22T00:25:34.388Z,-1.67
2024-04-22T00:26:34.335Z,-1.70
2024-04-22T00:27:34.295Z,-1.72
2024-04-22T00:28:35.245Z,-1.77
2024-04-22T00:29:34.875Z,-1.79
2024-04-22T00:30:34.311Z,-1.80
2024-04-22T00:31:34.341Z,-1.80
2024-04-22T00:32:34.298Z,-1.82
2024-04-22T00:33:34.244Z,-1.85
2024-04-22T00:34:34.291Z,-1.84
2024-04-22T00:35:34.220Z,-1.84
2024-04-22T00:36:34.193Z,-1.82
2024-04-22T00:37:34.330Z,-1.82
2024-04-22T00:38:34.203Z,-1.82
2024-04-22T00:39:34.174Z,-1.80
2024-04-22T00:40:34.296Z,-1.82
2024-04-22T00:41:34.153Z,-1.85
2024-04-22T00:42:34.134Z,-1.85
2024-04-22T00:43:34.142Z,-1.88
2024-04-22T00:44:34.145Z,-1.88
2024-04-22T00:45:34.103Z,-1.90
2024-04-22T00:46:34.126Z,-1.90
2024-04-22T00:47:34.153Z,-1.88
2024-04-22T00:48:34.078Z,-1.87
2024-04-22T00:49:34.124Z,-1.88
2024-04-22T00:50:34.810Z,-1.90
2024-04-22T00:51:34.025Z,-1.91
2024-04-22T00:52:34.036Z,-1.92
2024-04-22T00:53:34.029Z,-1.92
2024-04-22T00:54:33.991Z,-1.91
2024-04-22T00:55:34.014Z,-1.91
2024-04-22T00:56:34.727Z,-1.91
2024-04-22T00:57:33.979Z,-1.91
2024-04-22T00:58:34.010Z,-1.92
2024-04-22T00:59:33.940Z,-1.95
2024-04-22T01:00:33.954Z,-1.95
2024-04-22T01:01:33.988Z,-1.95
2024-04-22T01:02:33.942Z,-1.97
2024-04-22T01:03:33.920Z,-1.95
2024-04-22T01:04:34.067Z,-1.95
2024-04-22T01:05:33.882Z,-1.95
2024-04-22T01:06:33.865Z,-1.95
2024-04-22T01:07:33.894Z,-1.95
2024-04-22T01:08:33.855Z,-1.97
2024-04-22T01:09:33.820Z,-1.95
2024-04-22T01:10:33.933Z,-1.98
2024-04-22T01:11:34.473Z,-1.97
2024-04-22T01:12:33.808Z,-1.97
2024-04-22T01:13:33.800Z,-1.94
2024-04-22T01:14:33.788Z,-1.95
2024-04-22T01:15:33.748Z,-1.97
2024-04-22T01:16:33.755Z,-1.95
2024-04-22T01:17:33.789Z,-1.95
2024-04-22T01:18:33.728Z,-1.97
2024-04-22T01:19:33.713Z,-2.02
2024-04-22T01:20:33.718Z,-2.00
2024-04-22T01:21:33.694Z,-2.02
2024-04-22T01:22:34.536Z,-2.03
2024-04-22T01:23:33.680Z,-2.02
2024-04-22T01:24:33.657Z,-2.03
2024-04-22T01:25:33.716Z,-2.06
2024-04-22T01:26:33.629Z,-2.06
2024-04-22T01:27:33.625Z,-2.06
2024-04-22T01:28:33.768Z,-2.08
2024-04-22T01:29:33.636Z,-2.09
2024-04-22T01:30:33.610Z,-2.12
2024-04-22T01:31:34.559Z,-2.15
2024-04-22T01:32:33.692Z,-2.15
2024-04-22T01:33:33.600Z,-2.13
2024-04-22T01:34:33.578Z,-2.13
2024-04-22T01:35:33.552Z,-2.15
2024-04-22T01:36:33.549Z,-2.13
2024-04-22T01:37:33.538Z,-2.15
2024-04-22T01:38:33.496Z,-2.20
2024-04-22T01:39:33.485Z,-2.20
2024-04-22T01:40:33.521Z,-2.20
2024-04-22T01:41:33.595Z,-2.20
2024-04-22T01:42:33.462Z,-2.21
2024-04-22T01:43:33.539Z,-2.21
2024-04-22T01:44:33.443Z,-2.23
2024-04-22T01:45:33.463Z,-2.23
2024-04-22T01:46:33.532Z,-2.23
2024-04-22T01:47:33.507Z,-2.21
2024-04-22T01:48:33.402Z,-2.23
2024-04-22T01:49:33.427Z,-2.23
2024-04-22T01:50:33.371Z,-2.21
2024-04-22T01:51:34.219Z,-2.23
2024-04-22T01:52:33.424Z,-2.24
2024-04-22T01:53:33.337Z,-2.24
2024-04-22T01:54:33.334Z,-2.24
2024-04-22T01:55:33.351Z,-2.26
2024-04-22T01:56:33.297Z,-2.26
2024-04-22T01:57:33.313Z,-2.24
2024-04-22T01:58:33.312Z,-2.23
2024-04-22T01:59:33.254Z,-2.21
2024-04-22T02:00:33.267Z,-2.18
2024-04-22T02:01:33.319Z,-2.18
2024-04-22T02:02:33.279Z,-2.18
2024-04-22T02:03:33.235Z,-2.18
2024-04-22T02:04:33.269Z,-2.20
2024-04-22T02:05:33.205Z,-2.20
2024-04-22T02:06:33.198Z,-2.21
2024-04-22T02:07:33.251Z,-2.20
2024-04-22T02:08:33.168Z,-2.20
2024-04-22T02:09:33.141Z,-2.18
2024-04-22T02:10:33.179Z,-2.15
2024-04-22T02:11:33.957Z,-2.13
2024-04-22T02:12:33.984Z,-2.13
2024-04-22T02:13:33.196Z,-2.12
2024-04-22T02:14:33.107Z,-2.13
2024-04-22T02:15:33.081Z,-2.12
2024-04-22T02:16:33.172Z,-2.13
2024-04-22T02:17:33.191Z,-2.15
2024-04-22T02:18:33.054Z,-2.16
2024-04-22T02:19:33.053Z,-2.16
2024-04-22T02:20:33.051Z,-2.16
2024-04-22T02:21:33.013Z,-2.18
2024-04-22T02:22:34.068Z,-2.18
2024-04-22T02:23:32.997Z,-2.20
2024-04-22T02:24:32.997Z,-2.16
2024-04-22T02:25:32.983Z,-2.16
2024-04-22T02:26:32.979Z,-2.16
2024-04-22T02:27:32.944Z,-2.20
2024-04-22T02:28:33.000Z,-2.18
2024-04-22T02:29:32.928Z,-2.20
2024-04-22T02:30:32.912Z,-2.20
2024-04-22T02:31:32.948Z,-2.18
2024-04-22T02:32:34.006Z,-2.16
2024-04-22T02:33:33.734Z,-2.16
2024-04-22T02:34:32.916Z,-2.16
2024-04-22T02:35:32.877Z,-2.18
2024-04-22T02:36:32.851Z,-2.18
2024-04-22T02:37:32.874Z,-2.16
2024-04-22T02:38:32.855Z,-2.15
2024-04-22T02:39:32.835Z,-2.16
2024-04-22T02:40:32.881Z,-2.18
2024-04-22T02:41:32.838Z,-2.16
2024-04-22T02:42:32.808Z,-2.15
2024-04-22T02:43:32.894Z,-2.15
2024-04-22T02:44:32.770Z,-2.13
2024-04-22T02:45:32.781Z,-2.12
2024-04-22T02:46:32.795Z,-2.12
2024-04-22T02:47:32.828Z,-2.12
2024-04-22T02:48:32.721Z,-2.13
2024-04-22T02:49:32.778Z,-2.13
2024-04-22T02:50:32.707Z,-2.12
2024-04-22T02:51:32.775Z,-2.10
2024-04-22T02:52:33.572Z,-2.10
2024-04-22T02:53:32.681Z,-2.09
2024-04-22T02:54:32.721Z,-2.08
2024-04-22T02:55:32.739Z,-2.10
2024-04-22T02:56:32.636Z,-2.09
2024-04-22T02:57:32.652Z,-2.08
2024-04-22T02:58:32.666Z,-2.05
2024-04-22T02:59:32.611Z,-2.08
2024-04-22T03:00:32.592Z,-2.09
2024-04-22T03:01:32.580Z,-2.09
2024-04-22T03:02:32.627Z,-2.09
2024-04-22T03:03:32.599Z,-2.08
2024-04-22T03:04:32.582Z,-2.09
2024-04-22T03:05:32.547Z,-2.08
2024-04-22T03:06:32.528Z,-2.06
2024-04-22T03:07:32.581Z,-2.05
2024-04-22T03:08:32.499Z,-2.05
2024-04-22T03:09:32.511Z,-2.05
2024-04-22T03:10:32.506Z,-2.03
2024-04-22T03:11:32.534Z,-2.02
2024-04-22T03:12:32.942Z,-2.02
2024-04-22T03:13:33.302Z,-2.02
2024-04-22T03:14:32.963Z,-1.97
2024-04-22T03:15:32.434Z,-1.98
2024-04-22T03:16:33.302Z,-1.97
2024-04-22T03:17:32.511Z,-1.95
2024-04-22T03:18:32.390Z,-1.92
2024-04-22T03:19:32.396Z,-1.92
2024-04-22T03:20:32.367Z,-1.92
2024-04-22T03:21:32.396Z,-1.94
2024-04-22T03:22:33.175Z,-1.92
2024-04-22T03:23:32.348Z,-1.91
2024-04-22T03:24:32.325Z,-1.91
2024-04-22T03:25:32.393Z,-1.94
2024-04-22T03:26:32.309Z,-1.95
2024-04-22T03:27:32.287Z,-1.97
2024-04-22T03:28:32.294Z,-1.95
2024-04-22T03:29:32.261Z,-1.97
2024-04-22T03:30:32.256Z,-1.98
2024-04-22T03:31:32.304Z,-1.97
2024-04-22T03:32:32.326Z,-1.97
2024-04-22T03:33:33.128Z,-1.97
2024-04-22T03:34:33.066Z,-1.95
2024-04-22T03:35:32.210Z,-1.95
2024-04-22T03:36:32.234Z,-1.95
2024-04-22T03:37:32.206Z,-1.95
2024-04-22T03:38:32.388Z,-1.97
2024-04-22T03:39:32.228Z,-1.97
2024-04-22T03:40:32.142Z,-1.95
2024-04-22T03:41:32.129Z,-1.97
2024-04-22T03:42:32.119Z,-1.98
2024-04-22T03:43:32.154Z,-2.00
2024-04-22T03:44:32.133Z,-2.02
2024-04-22T03:45:32.197Z,-2.00
2024-04-22T03:46:32.095Z,-1.98
2024-04-22T03:47:32.427Z,-1.95
2024-04-22T03:48:32.057Z,-1.95
2024-04-22T03:49:32.095Z,-1.95
2024-04-22T03:50:32.028Z,-1.97
2024-04-22T03:51:32.017Z,-2.00
2024-04-22T03:52:32.921Z,-2.00
2024-04-22T03:53:32.994Z,-2.02
2024-04-22T03:54:31.997Z,-2.02
2024-04-22T03:55:32.044Z,-1.97
2024-04-22T03:56:31.992Z,-1.95
2024-04-22T03:57:31.966Z,-1.95
2024-04-22T03:58:31.996Z,-1.94
2024-04-22T03:59:31.928Z,-1.95
2024-04-22T04:00:31.949Z,-1.95
2024-04-22T04:01:31.972Z,-1.95
2024-04-22T04:02:31.897Z,-1.94
2024-04-22T04:03:31.953Z,-1.92
2024-04-22T04:04:32.829Z,-1.90
2024-04-22T04:05:32.062Z,-1.87
2024-04-22T04:06:32.613Z,-1.84
2024-04-22T04:07:31.895Z,-1.82
2024-04-22T04:08:31.841Z,-1.82
2024-04-22T04:09:31.833Z,-1.80
2024-04-22T04:10:31.831Z,-1.79
2024-04-22T04:11:31.834Z,-1.79
2024-04-22T04:12:31.809Z,-1.76
2024-04-22T04:13:31.838Z,-1.76
2024-04-22T04:14:32.513Z,-1.74
2024-04-22T04:15:32.687Z,-1.76
2024-04-22T04:16:31.829Z,-1.74
2024-04-22T04:17:31.810Z,-1.74
2024-04-22T04:18:31.730Z,-1.73
2024-04-22T04:19:31.841Z,-1.73
2024-04-22T04:20:31.702Z,-1.70
2024-04-22T04:21:31.711Z,-1.69
2024-04-22T04:22:32.563Z,-1.70
2024-04-22T04:23:31.670Z,-1.70
2024-04-22T04:24:31.707Z,-1.67
2024-04-22T04:25:31.675Z,-1.64
2024-04-22T04:26:31.634Z,-1.62
2024-04-22T04:27:31.612Z,-1.61
2024-04-22T04:28:31.663Z,-1.58
2024-04-22T04:29:31.613Z,-1.56
2024-04-22T04:30:31.576Z,-1.55
2024-04-22T04:31:32.603Z,-1.54
2024-04-22T04:32:31.736Z,-1.52
2024-04-22T04:33:31.562Z,-1.52
2024-04-22T04:34:31.577Z,-1.51
2024-04-22T04:35:31.563Z,-1.49
2024-04-22T04:36:31.549Z,-1.51
2024-04-22T04:37:31.591Z,-1.49
2024-04-22T04:38:31.506Z,-1.51
2024-04-22T04:39:31.495Z,-1.51
2024-04-22T04:40:31.537Z,-1.48
2024-04-22T04:41:31.475Z,-1.49
2024-04-22T04:42:31.912Z,-1.45
2024-04-22T04:43:31.990Z,-1.43
2024-04-22T04:44:31.883Z,-1.41
2024-04-22T04:45:31.413Z,-1.40
2024-04-22T04:46:31.507Z,-1.38
2024-04-22T04:47:31.486Z,-1.35
2024-04-22T04:48:32.173Z,-1.33
2024-04-22T04:49:31.481Z,-1.28
2024-04-22T04:50:31.389Z,-1.27
2024-04-22T04:51:31.351Z,-1.23
2024-04-22T04:52:31.412Z,-1.19
2024-04-22T04:53:31.350Z,-1.16
2024-04-22T04:54:31.344Z,-1.13
2024-04-22T04:55:32.175Z,-1.10
2024-04-22T04:56:32.064Z,-1.09
2024-04-22T04:57:31.869Z,-1.05
2024-04-22T04:58:31.367Z,-1.04
2024-04-22T04:59:31.265Z,-1.01
2024-04-22T05:00:31.333Z,-0.98
2024-04-22T05:01:31.475Z,-0.97
2024-04-22T05:02:31.329Z,-0.94
2024-04-22T05:03:31.361Z,-0.89
2024-04-22T05:04:31.323Z,-0.86
2024-04-22T05:05:31.300Z,-0.85
2024-04-22T05:06:31.298Z,-0.82
2024-04-22T05:07:31.315Z,-0.79
2024-04-22T05:08:31.262Z,-0.76
2024-04-22T05:09:31.470Z,-0.72
2024-04-22T05:10:31.181Z,-0.69
2024-04-22T05:11:31.928Z,-0.67
2024-04-22T05:12:31.134Z,-0.62
2024-04-22T05:13:31.267Z,-0.58
2024-04-22T05:14:31.120Z,-0.55
2024-04-22T05:15:31.126Z,-0.51
2024-04-22T05:16:31.223Z,-0.47
2024-04-22T05:17:31.188Z,-0.44
2024-04-22T05:18:31.167Z,-0.40
2024-04-22T05:19:31.067Z,-0.37
2024-04-22T05:20:31.075Z,-0.34
2024-04-22T05:21:31.048Z,-0.29
2024-04-22T05:22:31.056Z,-0.26
2024-04-22T05:23:31.045Z,-0.25
2024-04-22T05:24:30.982Z,-0.23
2024-04-22T05:25:31.005Z,-0.21
2024-04-22T05:26:30.968Z,-0.16
2024-04-22T05:27:33.092Z,-0.11
2024-04-22T05:28:30.979Z,-0.08
2024-04-22T05:29:30.953Z,-0.07
2024-04-22T05:30:30.918Z,-0.03
2024-04-22T05:31:30.974Z,0.03
2024-04-22T05:32:30.962Z,0.08
2024-04-22T05:33:31.350Z,0.13
2024-04-22T05:34:30.968Z,0.17
2024-04-22T05:35:30.883Z,0.21
2024-04-22T05:36:31.818Z,0.24
2024-04-22T05:37:30.943Z,0.28
2024-04-22T05:38:30.876Z,0.32
2024-04-22T05:39:31.772Z,0.35
2024-04-22T05:40:30.938Z,0.36
2024-04-22T05:41:30.837Z,0.39
2024-04-22T05:42:30.949Z,0.44
2024-04-22T05:43:30.877Z,0.46
2024-04-22T05:44:30.813Z,0.47
2024-04-22T05:45:30.777Z,0.49
2024-04-22T05:46:30.784Z,0.51
2024-04-22T05:47:30.805Z,0.57
2024-04-22T05:48:30.917Z,0.61
2024-04-22T05:49:30.748Z,0.66
2024-04-22T05:50:30.711Z,0.70
2024-04-22T05:51:30.717Z,0.76
2024-04-22T05:52:30.723Z,0.79
2024-04-22T05:53:30.695Z,0.87
2024-04-22T05:54:30.661Z,0.91
2024-04-22T05:55:30.733Z,0.96
2024-04-22T05:56:30.655Z,1.02
2024-04-22T05:57:31.450Z,1.06
2024-04-22T05:58:31.372Z,1.12
2024-04-22T05:59:30.653Z,1.16
2024-04-22T06:00:30.595Z,1.22
2024-04-22T06:01:30.631Z,1.23
2024-04-22T06:02:30.622Z,1.27
2024-04-22T06:03:30.670Z,1.32
2024-04-22T06:04:30.579Z,1.37
2024-04-22T06:05:30.552Z,1.41
2024-04-22T06:06:30.608Z,1.45
2024-04-22T06:07:30.595Z,1.51
2024-04-22T06:08:30.594Z,1.59
2024-04-22T06:09:30.743Z,1.65
2024-04-22T06:10:30.551Z,1.70
2024-04-22T06:11:30.537Z,1.77
2024-04-22T06:12:30.519Z,1.83
2024-04-22T06:13:30.542Z,1.90
2024-04-22T06:14:30.503Z,1.99
2024-04-22T06:15:30.468Z,2.05
2024-04-22T06:16:35.951Z,2.09
2024-04-22T06:17:37.334Z,2.17
2024-04-22T06:18:35.334Z,2.24
2024-04-22T06:19:31.115Z,2.28
2024-04-22T06:20:30.405Z,2.34
2024-04-22T06:21:30.386Z,2.39
2024-04-22T06:22:31.091Z,2.46
2024-04-22T06:23:30.356Z,2.52
2024-04-22T06:24:30.353Z,2.57
2024-04-22T06:25:30.376Z,2.63
2024-04-22T06:26:30.317Z,2.69
2024-04-22T06:27:30.347Z,2.78
2024-04-22T06:28:30.328Z,2.89
2024-04-22T06:29:30.292Z,2.96
2024-04-22T06:30:30.273Z,3.03
2024-04-22T06:31:30.325Z,3.10
2024-04-22T06:32:30.447Z,3.17
2024-04-22T06:33:30.235Z,3.23
2024-04-22T06:34:30.250Z,3.29
2024-04-22T06:35:30.257Z,3.35
2024-04-22T06:36:30.194Z,3.40
2024-04-22T06:37:31.106Z,3.48
2024-04-22T06:38:30.200Z,3.57
2024-04-22T06:39:30.193Z,3.62
2024-04-22T06:40:30.171Z,3.69
2024-04-22T06:41:30.143Z,3.75
2024-04-22T06:42:30.123Z,3.83
2024-04-22T06:43:30.137Z,3.87
2024-04-22T06:44:30.116Z,3.91
2024-04-22T06:45:30.113Z,3.97
2024-04-22T06:46:30.256Z,4.04
2024-04-22T06:47:30.163Z,4.08
2024-04-22T06:48:30.067Z,4.12
2024-04-22T06:49:30.398Z,4.16
2024-04-22T06:50:30.054Z,4.23
2024-04-22T06:51:30.051Z,4.30
2024-04-22T06:52:30.042Z,4.34
2024-04-22T06:53:30.048Z,4.44
2024-04-22T06:54:29.993Z,4.50
2024-04-22T06:55:30.020Z,4.55
2024-04-22T06:56:29.981Z,4.59
2024-04-22T06:57:29.984Z,4.66
2024-04-22T06:58:30.901Z,4.66
2024-04-22T06:59:29.976Z,4.72
2024-04-22T07:00:29.999Z,4.78
2024-04-22T07:01:35.626Z,4.85
2024-04-22T07:02:30.986Z,4.91
2024-04-22T07:03:30.046Z,4.96
2024-04-22T07:04:29.955Z,5.00
2024-04-22T07:05:29.892Z,5.07
2024-04-22T07:06:29.874Z,5.09
2024-04-22T07:07:29.894Z,5.15
2024-04-22T07:08:30.110Z,5.18
2024-04-22T07:09:29.841Z,5.22
2024-04-22T07:10:29.876Z,5.27
2024-04-22T07:11:29.825Z,5.30
2024-04-22T07:12:29.838Z,5.35
2024-04-22T07:13:29.823Z,5.33
2024-04-22T07:14:29.782Z,5.35
2024-04-22T07:15:29.777Z,5.39
2024-04-22T07:16:29.798Z,5.40
2024-04-22T07:17:29.942Z,5.40
2024-04-22T07:18:29.789Z,5.43
2024-04-22T07:19:30.660Z,5.43
2024-04-22T07:20:29.767Z,5.45
2024-04-22T07:21:29.715Z,5.48
2024-04-22T07:22:29.959Z,5.49
2024-04-22T07:23:29.703Z,5.49
2024-04-22T07:24:29.685Z,5.53
2024-04-22T07:25:29.737Z,5.51
2024-04-22T07:26:29.657Z,5.57
2024-04-22T07:27:29.646Z,5.61
2024-04-22T07:28:29.658Z,5.63
2024-04-22T07:29:29.643Z,5.65
2024-04-22T07:30:29.663Z,5.68
2024-04-22T07:31:29.660Z,5.67
2024-04-22T07:32:29.708Z,5.76
2024-04-22T07:33:31.634Z,5.82
2024-04-22T07:34:29.582Z,5.93
2024-04-22T07:35:29.590Z,5.97
2024-04-22T07:36:29.536Z,6.01
2024-04-22T07:37:29.568Z,6.06
2024-04-22T07:38:30.089Z,6.17
2024-04-22T07:39:30.343Z,6.28
2024-04-22T07:40:29.600Z,6.30
2024-04-22T07:41:29.512Z,6.34
2024-04-22T07:42:29.466Z,6.31
2024-04-22T07:43:29.490Z,6.38
2024-04-22T07:44:29.471Z,6.40
2024-04-22T07:45:31.756Z,6.38
2024-04-22T07:46:29.450Z,6.33
2024-04-22T07:47:29.506Z,6.31
2024-04-22T07:48:29.413Z,6.38
2024-04-22T07:49:29.482Z,6.37
2024-04-22T07:50:30.216Z,6.31
2024-04-22T07:51:29.378Z,6.25
2024-04-22T07:52:29.412Z,6.25
2024-04-22T07:53:29.354Z,6.30
2024-04-22T07:54:29.398Z,6.36
2024-04-22T07:55:29.406Z,6.30
2024-04-22T07:56:29.333Z,6.27
2024-04-22T07:57:29.326Z,6.27
2024-04-22T07:58:29.369Z,6.21
2024-04-22T07:59:29.325Z,6.17
2024-04-22T08:00:29.272Z,6.09
2024-04-22T08:01:29.282Z,6.06
2024-04-22T08:02:31.121Z,6.01
2024-04-22T08:03:29.242Z,5.97
2024-04-22T08:04:29.322Z,5.94
2024-04-22T08:05:29.480Z,5.90
2024-04-22T08:06:29.204Z,5.89
2024-04-22T08:07:29.261Z,5.99
2024-04-22T08:08:29.174Z,5.99
2024-04-22T08:09:29.165Z,6.04
2024-04-22T08:10:29.389Z,6.15
2024-04-22T08:11:29.207Z,6.15
2024-04-22T08:12:29.168Z,6.17
2024-04-22T08:13:29.183Z,6.18
2024-04-22T08:14:29.143Z,6.31
2024-04-22T08:15:29.120Z,6.38
2024-04-22T08:16:29.219Z,6.46
2024-04-22T08:17:29.190Z,6.59
2024-04-22T08:18:29.219Z,6.62
2024-04-22T08:19:29.894Z,6.58
2024-04-22T08:20:29.130Z,6.59
2024-04-22T08:21:29.166Z,6.55
2024-04-22T08:22:29.176Z,6.52
2024-04-22T08:23:29.008Z,6.49
2024-04-22T08:24:29.032Z,6.43
2024-04-22T08:25:29.047Z,6.41
2024-04-22T08:26:28.957Z,6.36
2024-04-22T08:27:29.014Z,6.30
2024-04-22T08:28:28.968Z,6.25
2024-04-22T08:29:28.945Z,6.19
2024-04-22T08:30:28.929Z,6.11
2024-04-22T08:31:28.980Z,6.09
2024-04-22T08:32:29.011Z,6.08
2024-04-22T08:33:29.035Z,6.08
2024-04-22T08:34:28.914Z,6.19
2024-04-22T08:35:28.926Z,6.25
2024-04-22T08:36:28.853Z,6.34
2024-04-22T08:37:28.872Z,6.43
2024-04-22T08:38:28.848Z,6.48
2024-04-22T08:39:28.912Z,6.43
2024-04-22T08:40:28.979Z,6.44
2024-04-22T08:41:29.666Z,6.61
2024-04-22T08:42:28.790Z,6.70
2024-04-22T08:43:28.787Z,6.87
2024-04-22T08:44:28.794Z,7.09
2024-04-22T08:45:28.779Z,7.28
2024-04-22T08:46:28.839Z,7.50
2024-04-22T08:47:28.833Z,7.72
2024-04-22T08:48:29.756Z,7.90
2024-04-22T08:49:28.734Z,7.97
2024-04-22T08:50:28.695Z,8.19
2024-04-22T08:51:28.735Z,8.40
2024-04-22T08:52:33.444Z,8.62
2024-04-22T08:53:29.706Z,8.76
2024-04-22T08:54:28.659Z,8.81
2024-04-22T08:55:28.737Z,9.01
2024-04-22T08:56:28.698Z,8.98
2024-04-22T08:57:28.666Z,8.91
2024-04-22T08:58:28.634Z,8.84
2024-04-22T08:59:37.403Z,8.94
2024-04-22T09:00:29.740Z,9.01
2024-04-22T09:01:29.030Z,8.95
2024-04-22T09:02:28.604Z,8.86
2024-04-22T09:03:28.672Z,8.79
2024-04-22T09:04:28.675Z,8.83
2024-04-22T09:05:28.747Z,8.80
2024-04-22T09:06:28.565Z,8.79
2024-04-22T09:07:28.871Z,8.77
2024-04-22T09:08:28.577Z,8.76
2024-04-22T09:09:40.505Z,8.76
2024-04-22T09:11:05.000Z,8.66
2024-04-22T09:11:57.264Z,8.68
2024-04-22T09:12:29.682Z,8.80
2024-04-22T09:13:28.814Z,8.98
2024-04-22T09:14:28.555Z,9.13
2024-04-22T09:15:28.477Z,9.28
2024-04-22T09:16:28.525Z,9.40
2024-04-22T09:17:28.711Z,9.65
2024-04-22T09:18:30.130Z,9.84
2024-04-22T09:19:28.430Z,10.01
2024-04-22T09:20:28.484Z,10.14
2024-04-22T09:21:29.198Z,10.26
2024-04-22T09:22:28.388Z,10.27
2024-04-22T09:23:28.380Z,10.17
2024-04-22T09:24:28.321Z,10.17
2024-04-22T09:25:28.389Z,10.15
2024-04-22T09:26:28.340Z,10.14
2024-04-22T09:27:28.370Z,10.11
2024-04-22T09:28:28.318Z,9.97
2024-04-22T09:29:28.264Z,9.89
2024-04-22T09:30:28.317Z,9.83
2024-04-22T09:31:28.343Z,9.72
2024-04-22T09:32:28.476Z,9.66
2024-04-22T09:33:28.283Z,9.66
2024-04-22T09:34:28.513Z,9.57
2024-04-22T09:35:28.233Z,9.51
2024-04-22T09:36:28.271Z,9.51
2024-04-22T09:37:28.210Z,9.60
2024-04-22T09:38:39.018Z,9.71
2024-04-22T09:39:29.180Z,9.68
2024-04-22T09:40:28.281Z,9.58
2024-04-22T09:41:29.091Z,9.54
2024-04-22T09:42:28.147Z,9.56
2024-04-22T09:43:28.111Z,9.48
2024-04-22T09:44:28.114Z,9.47
2024-04-22T09:45:28.110Z,9.51
2024-04-22T09:46:28.243Z,9.48
2024-04-22T09:47:28.430Z,9.43
2024-04-22T09:48:28.113Z,9.47
2024-04-22T09:49:30.166Z,9.43
2024-04-22T09:50:28.185Z,9.40
2024-04-22T09:51:28.059Z,9.26
2024-04-22T09:52:28.056Z,9.26
2024-04-22T09:53:28.038Z,9.29
2024-04-22T09:54:27.997Z,9.40
2024-04-22T09:55:28.005Z,9.57
2024-04-22T09:56:28.214Z,9.60
2024-04-22T09:57:27.938Z,9.54
2024-04-22T09:58:28.019Z,9.50
2024-04-22T09:59:28.022Z,9.51
2024-04-22T10:00:28.224Z,9.50
2024-04-22T10:01:28.085Z,9.51
2024-04-22T10:02:28.855Z,9.58
2024-04-22T10:03:28.377Z,9.56
2024-04-22T10:04:28.202Z,9.58
2024-04-22T10:05:27.968Z,9.65
2024-04-22T10:06:28.783Z,9.68
2024-04-22T10:07:27.930Z,9.68
2024-04-22T10:08:27.851Z,9.69
2024-04-22T10:09:27.844Z,9.89
2024-04-22T10:10:27.866Z,9.75
2024-04-22T10:11:27.871Z,9.69
2024-04-22T10:12:28.066Z,9.71
2024-04-22T10:13:27.828Z,9.84
2024-04-22T10:14:27.833Z,9.96
2024-04-22T10:15:27.753Z,10.04
2024-04-22T10:16:27.731Z,10.11
2024-04-22T10:17:27.743Z,10.18
2024-04-22T10:18:27.813Z,10.18
2024-04-22T10:19:28.012Z,10.20
2024-04-22T10:20:27.748Z,10.41
2024-04-22T10:21:27.697Z,10.63
2024-04-22T10:22:28.443Z,10.76
2024-04-22T10:23:28.654Z,10.88
2024-04-22T10:24:27.670Z,10.94
2024-04-22T10:25:28.587Z,10.85
2024-04-22T10:26:27.641Z,10.82
2024-04-22T10:27:27.638Z,10.92
2024-04-22T10:28:27.632Z,10.97
2024-04-22T10:29:27.616Z,11.18
2024-04-22T10:30:27.590Z,11.28
2024-04-22T10:31:27.611Z,11.37
2024-04-22T10:32:27.641Z,11.39
2024-04-22T10:33:27.600Z,11.33
2024-04-22T10:34:27.539Z,11.35
2024-04-22T10:35:27.529Z,11.36
2024-04-22T10:36:27.526Z,11.37
2024-04-22T10:37:27.547Z,11.29
2024-04-22T10:38:27.502Z,11.24
2024-04-22T10:39:27.539Z,11.19
2024-04-22T10:40:27.490Z,11.24
2024-04-22T10:41:28.022Z,11.29
2024-04-22T10:42:28.301Z,11.39
2024-04-22T10:43:28.203Z,11.40
2024-04-22T10:44:27.453Z,11.37
2024-04-22T10:45:27.465Z,11.42
2024-04-22T10:46:27.443Z,11.29
2024-04-22T10:47:27.496Z,11.25
2024-04-22T10:48:27.475Z,11.22
2024-04-22T10:49:27.527Z,11.24
2024-04-22T10:50:27.510Z,11.33
2024-04-22T10:51:27.722Z,11.36
2024-04-22T10:52:28.075Z,11.40
2024-04-22T10:53:27.317Z,11.55
2024-04-22T10:54:27.346Z,11.58
2024-04-22T10:55:27.359Z,11.69
2024-04-22T10:56:27.328Z,11.80
2024-04-22T10:57:27.281Z,11.94
2024-04-22T10:58:27.299Z,12.07
2024-04-22T10:59:27.267Z,12.14
2024-04-22T11:00:27.288Z,12.21
2024-04-22T11:01:27.375Z,12.21
2024-04-22T11:02:27.381Z,12.34
2024-04-22T11:03:28.097Z,12.45
2024-04-22T11:04:27.287Z,12.38
2024-04-22T11:05:27.746Z,12.54
2024-04-22T11:06:27.194Z,12.77
2024-04-22T11:07:27.292Z,12.90
2024-04-22T11:08:27.164Z,12.93
2024-04-22T11:09:27.154Z,13.04
2024-04-22T11:10:34.717Z,13.10
2024-04-22T11:11:28.185Z,13.12
2024-04-22T11:12:29.283Z,13.17
2024-04-22T11:13:27.156Z,13.22
2024-04-22T11:14:27.126Z,13.19
2024-04-22T11:15:27.082Z,13.19
2024-04-22T11:16:27.151Z,13.33
2024-04-22T11:17:27.119Z,13.33
2024-04-22T11:18:27.072Z,13.39
2024-04-22T11:19:27.101Z,13.46
2024-04-22T11:20:27.083Z,13.46
2024-04-22T11:21:27.003Z,13.54
2024-04-22T11:22:27.078Z,13.45
2024-04-22T11:23:27.039Z,13.44
2024-04-22T11:24:26.998Z,13.30
2024-04-22T11:25:27.269Z,13.26
2024-04-22T11:26:26.953Z,13.22
2024-04-22T11:27:26.950Z,13.11
2024-04-22T11:28:27.034Z,13.04
2024-04-22T11:29:26.950Z,12.96
2024-04-22T11:30:26.919Z,12.85
2024-04-22T11:31:26.993Z,12.78
2024-04-22T11:32:26.970Z,12.90
2024-04-22T11:33:26.927Z,13.08
2024-04-22T11:34:26.942Z,13.17
2024-04-22T11:35:26.842Z,13.04
2024-04-22T11:36:26.905Z,13.10
2024-04-22T11:37:26.906Z,13.15
2024-04-22T11:38:26.844Z,13.25
2024-04-22T11:39:26.861Z,13.32
2024-04-22T11:40:26.841Z,13.33
2024-04-22T11:41:26.784Z,13.22
2024-04-22T11:42:26.772Z,13.19
2024-04-22T11:43:26.787Z,13.17
2024-04-22T11:44:26.818Z,13.15
2024-04-22T11:45:26.778Z,13.12
2024-04-22T11:46:26.809Z,13.12
2024-04-22T11:47:26.742Z,13.11
2024-04-22T11:48:26.710Z,13.07
2024-04-22T11:49:26.725Z,13.10
2024-04-22T11:50:26.712Z,13.08
2024-04-22T11:51:26.675Z,13.01
2024-04-22T11:52:26.686Z,12.96
2024-04-22T11:53:26.709Z,12.92
2024-04-22T11:54:26.646Z,12.96
2024-04-22T11:55:26.655Z,12.97
2024-04-22T11:56:26.671Z,12.97
2024-04-22T11:57:26.621Z,12.95
2024-04-22T11:58:26.933Z,12.89
2024-04-22T11:59:26.592Z,12.79
2024-04-22T12:00:26.563Z,12.53
2024-04-22T12:01:26.569Z,12.20
2024-04-22T12:02:26.576Z,12.09
2024-04-22T12:03:26.523Z,11.80
2024-04-22T12:04:27.498Z,11.75
2024-04-22T12:05:26.588Z,11.78
2024-04-22T12:06:26.527Z,11.78
2024-04-22T12:07:26.809Z,11.79
2024-04-22T12:08:26.482Z,11.82
2024-04-22T12:09:26.472Z,11.76
2024-04-22T12:10:26.458Z,11.80
2024-04-22T12:11:26.541Z,11.94
2024-04-22T12:12:27.329Z,12.01
2024-04-22T12:13:26.467Z,12.05
2024-04-22T12:14:26.404Z,12.09
2024-04-22T12:15:26.400Z,12.17
2024-04-22T12:16:26.453Z,12.34
2024-04-22T12:17:26.453Z,12.41
2024-04-22T12:18:26.363Z,12.45
2024-04-22T12:19:26.381Z,12.50
2024-04-22T12:20:26.400Z,12.53
2024-04-22T12:21:26.321Z,12.57
2024-04-22T12:22:26.352Z,12.57
2024-04-22T12:23:26.315Z,12.42
2024-04-22T12:24:26.288Z,12.39
2024-04-22T12:25:27.166Z,12.47
2024-04-22T12:26:27.014Z,12.59
2024-04-22T12:27:26.250Z,12.64
2024-04-22T12:28:26.303Z,12.70
2024-04-22T12:29:26.302Z,12.75
2024-04-22T12:30:26.221Z,12.75
2024-04-22T12:31:26.218Z,12.64
2024-04-22T12:32:26.377Z,12.74
2024-04-22T12:33:26.261Z,12.79
2024-04-22T12:34:26.480Z,12.83
2024-04-22T12:35:26.164Z,12.92
2024-04-22T12:36:26.156Z,13.01
2024-04-22T12:37:26.196Z,13.12
2024-04-22T12:38:26.290Z,13.38
2024-04-22T12:39:27.072Z,13.51
2024-04-22T12:40:26.156Z,13.64
2024-04-22T12:41:26.119Z,13.75
2024-04-22T12:42:26.105Z,13.84
2024-04-22T12:43:26.100Z,13.87
2024-04-22T12:44:26.236Z,13.71
2024-04-22T12:45:26.048Z,13.60
2024-04-22T12:46:29.197Z,13.54
2024-04-22T12:47:26.888Z,13.46
2024-04-22T12:48:26.042Z,13.39
2024-04-22T12:49:26.086Z,13.32
2024-04-22T12:50:26.001Z,13.14
2024-04-22T12:51:25.974Z,12.96
2024-04-22T12:52:26.000Z,12.77
2024-04-22T12:53:25.988Z,12.71
2024-04-22T12:54:26.570Z,12.53
2024-04-22T12:55:25.927Z,12.37
2024-04-22T12:56:25.917Z,12.19
2024-04-22T12:57:25.934Z,12.13
2024-04-22T12:58:25.929Z,12.12
2024-04-22T12:59:25.898Z,12.01
2024-04-22T13:00:26.813Z,11.94
2024-04-22T13:01:25.898Z,11.94